Time,TemperatureF,DewpointF,PressureIn,WindDirection,WindDirectionDegrees,WindSpeedMPH,WindSpeedGustMPH,Humidity,HourlyPrecipIn,Conditions,Clouds,dailyrainin,SolarRadiationWatts/m^2,SoftwareType,DateUTC
2013-11-16 00:10:00,43.2,36.0,29.40,South,184,1.0,9.0,77,0.00,,,0.00,0,weatherlink.com 1.10,2013-11-16 06:10:00,
2013-11-16 00:25:00,42.8,36.0,29.39,SE,132,6.0,7.0,78,0.00,,,0.00,0,weatherlink.com 1.10,2013-11-16 06:25:00,
2013-11-16 00:40:00,42.6,36.0,29.40,South,189,0.0,9.0,78,0.00,,,0.00,0,weatherlink.com 1.10,2013-11-16 06:40:00,
2013-11-16 00:55:00,42.2,35.0,29.39,SSE,162,0.0,8.0,77,0.00,,,0.00,0,weatherlink.com 1.10,2013-11-16 06:55:00,
2013-11-16 01:10:00,42.1,35.0,29.38,SSW,202,0.0,4.0,77,0.00,,,0.00,0,weatherlink.com 1.10,2013-11-16 07:10:00,
2013-11-16 01:25:00,42.5,34.0,29.37,SSW,195,1.0,7.0,73,0.00,,,0.00,0,weatherlink.com 1.10,2013-11-16 07:25:00,
2013-11-16 01:40:00,42.4,34.0,29.36,SW,228,4.0,7.0,72,0.00,,,0.00,0,weatherlink.com 1.10,2013-11-16 07:40:00,
2013-11-16 01:55:00,42.4,33.0,29.36,SSW,200,2.0,10.0,69,0.00,,,0.00,0,weatherlink.com 1.10,2013-11-16 07:55:00,
2013-11-16 02:10:00,41.9,32.0,29.36,SW,219,5.0,9.0,69,0.00,,,0.00,0,weatherlink.com 1.10,2013-11-16 08:10:00,
2013-11-16 02:25:00,43.3,32.0,29.35,West,259,4.0,7.0,65,0.00,,,0.00,0,weatherlink.com 1.10,2013-11-16 08:25:00,
2013-11-16 02:40:00,43.0,31.0,29.36,South,189,1.0,11.0,63,0.00,,,0.00,0,weatherlink.com 1.10,2013-11-16 08:40:00,
2013-11-16 02:55:00,41.4,31.0,29.35,SSW,213,0.0,1.0,67,0.00,,,0.00,0,weatherlink.com 1.10,2013-11-16 08:55:00,
2013-11-16 03:10:00,41.3,31.0,29.35,SW,236,0.0,0.0,66,0.00,,,0.00,0,weatherlink.com 1.10,2013-11-16 09:10:00,
2013-11-16 03:25:00,40.9,30.0,29.35,WSW,257,0.0,0.0,66,0.00,,,0.00,0,weatherlink.com 1.10,2013-11-16 09:25:00,
2013-11-16 03:40:00,41.3,30.0,29.35,West,269,5.0,9.0,65,0.00,,,0.00,0,weatherlink.com 1.10,2013-11-16 09:40:00,
2013-11-16 03:55:00,41.5,30.0,29.35,SW,229,8.0,11.0,63,0.00,,,0.00,0,weatherlink.com 1.10,2013-11-16 09:55:00,
2013-11-16 04:10:00,40.9,29.0,29.36,WNW,286,6.0,10.0,64,0.00,,,0.00,0,weatherlink.com 1.10,2013-11-16 10:10:00,
2013-11-16 04:25:00,41.9,30.0,29.36,West,277,14.0,17.0,62,0.00,,,0.00,0,weatherlink.com 1.10,2013-11-16 10:25:00,
2013-11-16 04:40:00,41.5,30.0,29.36,West,281,8.0,14.0,64,0.00,,,0.00,0,weatherlink.com 1.10,2013-11-16 10:40:00,
2013-11-16 04:55:00,42.7,31.0,29.36,WNW,282,11.0,16.0,63,0.00,,,0.00,0,weatherlink.com 1.10,2013-11-16 10:55:00,
2013-11-16 05:10:00,42.4,30.0,29.36,West,271,6.0,12.0,63,0.00,,,0.00,0,weatherlink.com 1.10,2013-11-16 11:10:00,
2013-11-16 05:25:00,41.9,31.0,29.36,WNW,292,7.0,12.0,65,0.00,,,0.00,0,weatherlink.com 1.10,2013-11-16 11:25:00,
2013-11-16 05:40:00,41.4,31.0,29.36,West,278,0.0,9.0,67,0.00,,,0.00,0,weatherlink.com 1.10,2013-11-16 11:40:00,
2013-11-16 05:56:00,40.3,30.0,29.36,WNW,284,0.0,0.0,67,0.00,,,0.00,0,weatherlink.com 1.10,2013-11-16 11:56:00,
2013-11-16 06:11:00,38.8,30.0,29.36,West,277,0.0,0.0,72,0.00,,,0.00,0,weatherlink.com 1.10,2013-11-16 12:11:00,
2013-11-16 06:26:00,39.6,31.0,29.37,West,279,0.0,0.0,71,0.00,,,0.00,0,weatherlink.com 1.10,2013-11-16 12:26:00,
2013-11-16 06:41:00,39.1,31.0,29.36,West,277,0.0,0.0,72,0.00,,,0.00,0,weatherlink.com 1.10,2013-11-16 12:41:00,
2013-11-16 06:56:00,37.4,30.0,29.36,WNW,295,0.0,0.0,74,0.00,,,0.00,0,weatherlink.com 1.10,2013-11-16 12:56:00,
2013-11-16 07:11:00,37.5,31.0,29.39,West,275,0.0,0.0,76,0.00,,,0.00,0,weatherlink.com 1.10,2013-11-16 13:11:00,
2013-11-16 07:26:00,38.6,31.0,29.39,WNW,293,0.0,0.0,75,0.00,,,0.00,0,weatherlink.com 1.10,2013-11-16 13:26:00,
2013-11-16 07:41:00,38.8,32.0,29.39,West,280,0.0,0.0,75,0.00,,,0.00,7,weatherlink.com 1.10,2013-11-16 13:41:00,
2013-11-16 07:56:00,39.1,32.0,29.39,West,273,0.0,0.0,75,0.00,,,0.00,25,weatherlink.com 1.10,2013-11-16 13:56:00,
2013-11-16 08:11:00,39.5,32.0,29.39,West,259,0.0,0.0,74,0.00,,,0.00,40,weatherlink.com 1.10,2013-11-16 14:11:00,
2013-11-16 08:26:00,40.1,32.0,29.41,West,271,0.0,0.0,74,0.00,,,0.00,98,weatherlink.com 1.10,2013-11-16 14:26:00,
2013-11-16 08:41:00,39.6,32.0,29.41,SW,217,0.0,0.0,74,0.00,,,0.00,141,weatherlink.com 1.10,2013-11-16 14:41:00,
2013-11-16 08:56:00,41.9,33.0,29.42,WSW,249,0.0,0.0,72,0.00,,,0.00,190,weatherlink.com 1.10,2013-11-16 14:56:00,
2013-11-16 09:11:00,43.8,34.0,29.42,SW,217,0.0,0.0,68,0.00,,,0.00,232,weatherlink.com 1.10,2013-11-16 15:11:00,
2013-11-16 09:26:00,44.9,34.0,29.42,WSW,243,0.0,0.0,66,0.00,,,0.00,271,weatherlink.com 1.10,2013-11-16 15:26:00,
2013-11-16 09:41:00,46.8,34.0,29.42,West,280,0.0,6.0,61,0.00,,,0.00,308,weatherlink.com 1.10,2013-11-16 15:41:00,
2013-11-16 09:56:00,47.6,34.0,29.42,West,276,0.0,0.0,59,0.00,,,0.00,343,weatherlink.com 1.10,2013-11-16 15:56:00,
2013-11-16 10:11:00,49.5,34.0,29.42,WNW,288,0.0,1.0,55,0.00,,,0.00,374,weatherlink.com 1.10,2013-11-16 16:11:00,
2013-11-16 10:26:00,50.0,34.0,29.42,WNW,283,0.0,3.0,54,0.00,,,0.00,406,weatherlink.com 1.10,2013-11-16 16:26:00,
2013-11-16 10:42:00,51.8,34.0,29.43,WNW,296,0.0,0.0,50,0.00,,,0.00,432,weatherlink.com 1.10,2013-11-16 16:42:00,
2013-11-16 10:57:00,52.1,33.0,29.43,West,277,1.0,5.0,48,0.00,,,0.00,457,weatherlink.com 1.10,2013-11-16 16:57:00,
2013-11-16 11:12:00,53.5,33.0,29.43,West,274,0.0,0.0,46,0.00,,,0.00,476,weatherlink.com 1.10,2013-11-16 17:12:00,
2013-11-16 11:27:00,53.6,33.0,29.43,WNW,294,0.0,4.0,45,0.00,,,0.00,492,weatherlink.com 1.10,2013-11-16 17:27:00,
2013-11-16 11:42:00,55.0,33.0,29.42,West,277,0.0,6.0,43,0.00,,,0.00,506,weatherlink.com 1.10,2013-11-16 17:42:00,
2013-11-16 11:57:00,54.8,32.0,29.41,NW,311,0.0,0.0,43,0.00,,,0.00,517,weatherlink.com 1.10,2013-11-16 17:57:00,
2013-11-16 12:12:00,56.0,33.0,29.41,West,259,0.0,7.0,42,0.00,,,0.00,526,weatherlink.com 1.10,2013-11-16 18:12:00,
2013-11-16 12:27:00,56.5,33.0,29.40,West,275,0.0,6.0,41,0.00,,,0.00,527,weatherlink.com 1.10,2013-11-16 18:27:00,
2013-11-16 12:42:00,56.4,32.0,29.39,NW,304,0.0,5.0,39,0.00,,,0.00,526,weatherlink.com 1.10,2013-11-16 18:42:00,
2013-11-16 12:57:00,57.5,32.0,29.39,West,266,4.0,8.0,38,0.00,,,0.00,522,weatherlink.com 1.10,2013-11-16 18:57:00,
2013-11-16 13:12:00,57.8,31.0,29.38,West,269,2.0,4.0,37,0.00,,,0.00,515,weatherlink.com 1.10,2013-11-16 19:12:00,
2013-11-16 13:27:00,58.1,32.0,29.38,West,271,0.0,0.0,37,0.00,,,0.00,504,weatherlink.com 1.10,2013-11-16 19:27:00,
2013-11-16 13:42:00,59.0,31.0,29.37,West,260,0.0,6.0,35,0.00,,,0.00,492,weatherlink.com 1.10,2013-11-16 19:42:00,
2013-11-16 13:57:00,58.8,31.0,29.36,South,175,0.0,8.0,35,0.00,,,0.00,475,weatherlink.com 1.10,2013-11-16 19:57:00,
2013-11-16 14:12:00,58.4,31.0,29.36,SSE,158,0.0,6.0,36,0.00,,,0.00,454,weatherlink.com 1.10,2013-11-16 20:12:00,
2013-11-16 14:27:00,59.2,33.0,29.36,South,191,1.0,8.0,37,0.00,,,0.00,432,weatherlink.com 1.10,2013-11-16 20:27:00,
2013-11-16 14:42:00,59.6,33.0,29.35,South,189,4.0,7.0,37,0.00,,,0.00,422,weatherlink.com 1.10,2013-11-16 20:42:00,
2013-11-16 14:57:00,58.9,32.0,29.34,South,182,0.0,11.0,37,0.00,,,0.00,109,weatherlink.com 1.10,2013-11-16 20:57:00,
2013-11-16 15:12:00,58.4,32.0,29.33,South,191,4.0,10.0,37,0.00,,,0.00,181,weatherlink.com 1.10,2013-11-16 21:12:00,
2013-11-16 15:27:00,58.3,31.0,29.32,South,171,0.0,9.0,36,0.00,,,0.00,162,weatherlink.com 1.10,2013-11-16 21:27:00,
2013-11-16 15:42:00,58.1,31.0,29.33,SE,144,1.0,9.0,36,0.00,,,0.00,120,weatherlink.com 1.10,2013-11-16 21:42:00,
2013-11-16 15:57:00,58.0,32.0,29.34,SE,134,0.0,9.0,37,0.00,,,0.00,135,weatherlink.com 1.10,2013-11-16 21:57:00,
2013-11-16 16:12:00,57.3,32.0,29.33,SE,136,1.0,8.0,39,0.00,,,0.00,81,weatherlink.com 1.10,2013-11-16 22:12:00,
2013-11-16 16:27:00,56.4,32.0,29.34,SE,143,0.0,5.0,40,0.00,,,0.00,60,weatherlink.com 1.10,2013-11-16 22:27:00,
2013-11-16 16:42:00,55.6,33.0,29.35,SE,144,0.0,5.0,42,0.00,,,0.00,32,weatherlink.com 1.10,2013-11-16 22:42:00,
2013-11-16 16:57:00,54.4,33.0,29.34,SE,129,0.0,3.0,44,0.00,,,0.00,18,weatherlink.com 1.10,2013-11-16 22:57:00,
2013-11-16 17:12:00,52.8,33.0,29.34,ESE,112,0.0,3.0,47,0.00,,,0.00,11,weatherlink.com 1.10,2013-11-16 23:12:00,
2013-11-16 17:27:00,51.8,33.0,29.34,ESE,115,0.0,5.0,49,0.00,,,0.00,5,weatherlink.com 1.10,2013-11-16 23:27:00,
2013-11-16 17:42:00,50.8,33.0,29.34,East,96,0.0,5.0,50,0.00,,,0.00,0,weatherlink.com 1.10,2013-11-16 23:42:00,
2013-11-16 17:57:00,50.2,33.0,29.34,East,100,2.0,4.0,51,0.00,,,0.00,0,weatherlink.com 1.10,2013-11-16 23:57:00,
2013-11-16 18:12:00,50.2,33.0,29.33,East,99,0.0,6.0,51,0.00,,,0.00,0,weatherlink.com 1.10,2013-11-17 00:12:00,
2013-11-16 18:27:00,50.4,33.0,29.34,SSE,150,0.0,4.0,52,0.00,,,0.00,0,weatherlink.com 1.10,2013-11-17 00:27:00,
2013-11-16 18:42:00,49.0,33.0,29.33,ESE,109,0.0,1.0,54,0.00,,,0.00,0,weatherlink.com 1.10,2013-11-17 00:42:00,
2013-11-16 18:57:00,47.9,33.0,29.33,SE,137,2.0,5.0,56,0.00,,,0.00,0,weatherlink.com 1.10,2013-11-17 00:57:00,
2013-11-16 19:12:00,47.4,33.0,29.32,ESE,113,2.0,7.0,57,0.00,,,0.00,0,weatherlink.com 1.10,2013-11-17 01:12:00,
2013-11-16 19:27:00,47.2,33.0,29.32,SE,126,2.0,4.0,58,0.00,,,0.00,0,weatherlink.com 1.10,2013-11-17 01:27:00,
2013-11-16 19:42:00,46.2,32.0,29.32,East,100,1.0,5.0,59,0.00,,,0.00,0,weatherlink.com 1.10,2013-11-17 01:42:00,
2013-11-16 19:57:00,45.8,32.0,29.31,ESE,111,2.0,7.0,60,0.00,,,0.00,0,weatherlink.com 1.10,2013-11-17 01:57:00,
2013-11-16 20:12:00,44.9,32.0,29.31,SE,129,2.0,4.0,61,0.00,,,0.00,0,weatherlink.com 1.10,2013-11-17 02:12:00,
2013-11-16 20:27:00,44.4,32.0,29.31,ESE,107,2.0,5.0,63,0.00,,,0.00,0,weatherlink.com 1.10,2013-11-17 02:27:00,
2013-11-16 20:42:00,45.1,32.0,29.31,ESE,108,2.0,3.0,61,0.00,,,0.00,0,weatherlink.com 1.10,2013-11-17 02:42:00,
2013-11-16 20:57:00,45.5,33.0,29.32,SE,130,0.0,4.0,61,0.00,,,0.00,0,weatherlink.com 1.10,2013-11-17 02:57:00,
2013-11-16 21:12:00,45.8,32.0,29.32,SE,138,0.0,0.0,60,0.00,,,0.00,0,weatherlink.com 1.10,2013-11-17 03:12:00,
2013-11-16 21:27:00,45.7,32.0,29.32,SE,133,0.0,0.0,60,0.00,,,0.00,0,weatherlink.com 1.10,2013-11-17 03:27:00,
2013-11-16 21:57:00,44.5,32.0,29.33,SW,222,0.0,0.0,61,0.00,,,0.00,0,weatherlink.com 1.10,2013-11-17 03:57:00,
2013-11-16 22:12:00,43.0,32.0,29.33,North,360,0.0,0.0,65,0.00,,,0.00,0,weatherlink.com 1.10,2013-11-17 04:12:00,
2013-11-16 22:27:00,40.2,31.0,29.33,NE,35,0.0,0.0,69,0.00,,,0.00,0,weatherlink.com 1.10,2013-11-17 04:27:00,
2013-11-16 22:42:00,39.4,31.0,29.32,NE,38,0.0,0.0,73,0.00,,,0.00,0,weatherlink.com 1.10,2013-11-17 04:42:00,
2013-11-16 22:58:00,40.5,32.0,29.34,North,360,0.0,2.0,71,0.00,,,0.00,0,weatherlink.com 1.10,2013-11-17 04:58:00,
2013-11-16 23:12:00,40.2,32.0,29.36,North,5,0.0,7.0,72,0.00,,,0.00,0,weatherlink.com 1.10,2013-11-17 05:12:00,
2013-11-16 23:27:00,40.4,32.0,29.37,North,355,0.0,5.0,71,0.00,,,0.00,0,weatherlink.com 1.10,2013-11-17 05:27:00,
2013-11-16 23:43:00,41.7,32.0,29.37,NE,38,0.0,4.0,68,0.00,,,0.00,0,weatherlink.com 1.10,2013-11-17 05:43:00,
2013-11-16 23:58:00,43.0,32.0,29.38,North,355,2.0,8.0,66,0.00,,,0.00,0,weatherlink.com 1.10,2013-11-17 05:58:00,